createdAt,value
2018-02-13T00:00:01.950Z,12.00
2018-02-13T00:02:32.433Z,10.73
2018-02-13T00:05:01.338Z,12.43
2018-02-13T00:07:30.178Z,12.33
2018-02-13T00:09:59.000Z,12.07
2018-02-13T00:12:27.870Z,11.67
2018-02-13T00:14:56.699Z,12.43
2018-02-13T00:17:25.567Z,11.70
2018-02-13T00:19:54.426Z,11.90
2018-02-13T00:22:23.263Z,11.67
2018-02-13T00:24:52.126Z,12.23
2018-02-13T00:27:20.966Z,10.60
2018-02-13T00:29:50.585Z,10.53
2018-02-13T00:32:20.196Z,10.40
2018-02-13T00:34:50.745Z,10.27
2018-02-13T00:37:19.576Z,10.37
2018-02-13T00:39:48.405Z,12.27
2018-02-13T00:42:17.474Z,9.83
2018-02-13T00:44:46.341Z,10.77
2018-02-13T00:47:15.967Z,10.57
2018-02-13T00:49:44.830Z,10.00
2018-02-13T00:52:13.655Z,9.43
2018-02-13T00:54:42.551Z,10.40
2018-02-13T00:57:12.133Z,10.53
2018-02-13T00:59:40.985Z,10.20
2018-02-13T01:02:09.880Z,9.60
2018-02-13T01:04:38.723Z,10.00
2018-02-13T01:07:07.601Z,9.60
2018-02-13T01:09:36.470Z,9.80
2018-02-13T01:12:06.127Z,10.40
2018-02-13T01:14:34.918Z,11.20
2018-02-13T01:17:04.571Z,10.03
2018-02-13T01:19:34.219Z,8.57
2018-02-13T01:22:03.046Z,9.20
2018-02-13T01:24:31.885Z,8.90
2018-02-13T01:27:00.718Z,8.17
2018-02-13T01:29:30.333Z,8.17
2018-02-13T01:31:59.179Z,8.07
2018-02-13T01:34:28.021Z,9.83
2018-02-13T01:36:56.862Z,8.80
2018-02-13T01:39:26.698Z,11.10
2018-02-13T01:41:55.542Z,9.73
2018-02-13T01:44:24.383Z,9.20
2018-02-13T01:46:53.213Z,7.90
2018-02-13T01:49:22.053Z,8.67
2018-02-13T01:51:50.890Z,7.27
2018-02-13T01:54:19.707Z,7.57
2018-02-13T01:56:49.313Z,7.20
2018-02-13T01:59:18.140Z,7.33
2018-02-13T02:01:46.966Z,7.63
2018-02-13T02:04:15.811Z,6.90
2018-02-13T02:06:45.412Z,7.03
2018-02-13T02:09:15.018Z,7.10
2018-02-13T02:11:43.858Z,6.80
2018-02-13T02:14:12.701Z,7.77
2018-02-13T02:16:41.540Z,6.20
2018-02-13T02:19:10.377Z,6.30
2018-02-13T02:21:39.266Z,7.23
2018-02-13T02:24:08.470Z,6.60
2018-02-13T02:26:37.278Z,5.93
2018-02-13T02:29:06.107Z,8.00
2018-02-13T02:31:35.737Z,8.60
2018-02-13T02:34:05.330Z,8.50
2018-02-13T02:36:34.956Z,8.90
2018-02-13T02:39:04.550Z,6.93
2018-02-13T02:41:33.415Z,6.27
2018-02-13T02:44:03.026Z,5.80
2018-02-13T02:46:32.634Z,5.97
2018-02-13T02:49:02.467Z,6.00
2018-02-13T02:51:32.058Z,5.87
2018-02-13T02:54:01.653Z,5.83
2018-02-13T02:56:31.293Z,6.53
2018-02-13T02:59:00.133Z,6.13
2018-02-13T03:01:29.169Z,6.30
2018-02-13T03:03:57.987Z,7.47
2018-02-13T03:06:26.834Z,6.43
2018-02-13T03:08:57.323Z,5.60
2018-02-13T03:11:26.112Z,5.57
2018-02-13T03:13:54.976Z,6.73
2018-02-13T03:16:23.827Z,5.20
2018-02-13T03:18:53.446Z,6.47
2018-02-13T03:21:23.039Z,6.33
2018-02-13T03:23:52.648Z,5.37
2018-02-13T03:26:22.274Z,5.40
2018-02-13T03:28:51.109Z,6.70
2018-02-13T03:31:19.939Z,5.20
2018-02-13T03:33:49.533Z,5.30
2018-02-13T03:36:19.122Z,5.93
2018-02-13T03:38:47.953Z,5.80
2018-02-13T03:41:16.777Z,5.20
2018-02-13T03:43:45.609Z,5.93
2018-02-13T03:46:14.441Z,5.73
2018-02-13T03:48:43.262Z,4.60
2018-02-13T03:51:12.889Z,5.30
2018-02-13T03:53:41.706Z,5.90
2018-02-13T03:56:10.549Z,5.40
2018-02-13T03:58:40.141Z,5.33
2018-02-13T04:01:08.986Z,5.63
2018-02-13T04:03:37.800Z,5.03
2018-02-13T04:06:06.641Z,5.30
2018-02-13T04:08:35.522Z,5.53
2018-02-13T04:11:04.290Z,5.67
2018-02-13T04:13:33.925Z,5.53
2018-02-13T04:16:02.742Z,5.53
2018-02-13T04:18:31.601Z,5.83
2018-02-13T04:21:00.775Z,5.10
2018-02-13T04:23:30.426Z,5.87
2018-02-13T04:25:59.973Z,6.23
2018-02-13T04:28:28.817Z,5.03
2018-02-13T04:30:57.643Z,6.40
2018-02-13T04:33:26.493Z,5.13
2018-02-13T04:35:55.382Z,5.90
2018-02-13T04:38:24.978Z,4.97
2018-02-13T04:40:53.821Z,6.43
2018-02-13T04:43:22.651Z,4.77
2018-02-13T04:45:51.484Z,5.23
2018-02-13T04:48:21.070Z,6.10
2018-02-13T04:50:49.927Z,5.00
2018-02-13T04:53:18.762Z,4.70
2018-02-13T04:55:48.795Z,5.27
2018-02-13T04:58:18.470Z,5.50
2018-02-13T05:00:47.301Z,5.03
2018-02-13T05:03:16.153Z,5.70
2018-02-13T05:05:45.763Z,6.30
2018-02-13T05:08:15.370Z,7.30
2018-02-13T05:10:44.977Z,6.00
2018-02-13T05:13:14.573Z,4.97
2018-02-13T05:15:43.400Z,6.30
2018-02-13T05:18:12.251Z,5.33
2018-02-13T05:20:41.254Z,6.00
2018-02-13T05:23:10.866Z,5.70
2018-02-13T05:25:40.499Z,5.63
2018-02-13T05:28:09.302Z,5.60
2018-02-13T05:30:38.153Z,6.40
2018-02-13T05:33:07.753Z,5.07
2018-02-13T05:35:37.365Z,6.00
2018-02-13T05:38:06.536Z,5.20
2018-02-13T05:40:35.375Z,4.83
2018-02-13T05:43:04.557Z,4.60
2018-02-13T05:45:34.166Z,4.40
2018-02-13T05:48:03.027Z,4.87
2018-02-13T05:50:32.627Z,4.77
2018-02-13T05:53:01.453Z,6.10
2018-02-13T05:55:30.271Z,5.37
2018-02-13T05:57:59.127Z,5.00
2018-02-13T06:00:27.974Z,6.20
2018-02-13T06:02:56.801Z,4.57
2018-02-13T06:05:25.618Z,5.03
2018-02-13T06:07:54.455Z,4.80
2018-02-13T06:10:24.095Z,4.57
2018-02-13T06:12:54.501Z,4.77
2018-02-13T06:15:24.097Z,4.37
2018-02-13T06:17:54.245Z,4.57
2018-02-13T06:20:23.241Z,4.73
2018-02-13T06:22:52.080Z,5.37
2018-02-13T06:25:20.970Z,4.40
2018-02-13T06:27:49.753Z,4.40
2018-02-13T06:30:18.601Z,4.53
2018-02-13T06:32:47.407Z,5.23
2018-02-13T06:35:16.244Z,4.50
2018-02-13T06:37:45.847Z,5.00
2018-02-13T06:40:15.481Z,4.13
2018-02-13T06:42:44.309Z,4.50
2018-02-13T06:45:13.177Z,4.73
2018-02-13T06:47:42.766Z,4.63
2018-02-13T06:50:11.593Z,4.77
2018-02-13T06:52:40.437Z,4.97
2018-02-13T06:55:09.288Z,5.23
2018-02-13T06:57:39.655Z,4.83
2018-02-13T07:00:08.518Z,4.93
2018-02-13T07:02:38.104Z,4.77
2018-02-13T07:05:06.930Z,4.47
2018-02-13T07:07:36.689Z,4.17
2018-02-13T07:10:05.534Z,4.17
2018-02-13T07:12:34.346Z,4.20
2018-02-13T07:15:03.178Z,5.00
2018-02-13T07:17:32.746Z,3.83
2018-02-13T07:20:01.705Z,4.47
2018-02-13T07:22:30.550Z,3.87
2018-02-13T07:24:59.381Z,4.50
2018-02-13T07:27:28.203Z,4.47
2018-02-13T07:29:57.062Z,5.30
2018-02-13T07:32:25.869Z,4.67
2018-02-13T07:34:54.750Z,4.97
2018-02-13T07:37:23.593Z,3.73
2018-02-13T07:39:52.431Z,3.90
2018-02-13T07:42:21.260Z,4.77
2018-02-13T07:44:50.101Z,3.77
2018-02-13T07:47:19.698Z,4.30
2018-02-13T07:49:49.308Z,4.43
2018-02-13T07:52:18.934Z,3.80
2018-02-13T07:54:47.766Z,4.83
2018-02-13T07:57:17.597Z,4.30
2018-02-13T07:59:46.425Z,4.40
2018-02-13T08:02:15.335Z,4.30
2018-02-13T08:04:44.122Z,4.70
2018-02-13T08:07:12.955Z,4.27
2018-02-13T08:09:42.545Z,4.20
2018-02-13T08:12:11.405Z,4.67
2018-02-13T08:14:40.468Z,3.87
2018-02-13T08:17:10.067Z,4.00
2018-02-13T08:19:39.641Z,4.37
2018-02-13T08:22:08.484Z,4.53
2018-02-13T08:24:37.298Z,4.60
2018-02-13T08:27:06.160Z,4.63
2018-02-13T08:29:34.984Z,4.43
2018-02-13T08:32:03.802Z,4.60
2018-02-13T08:34:33.469Z,4.43
2018-02-13T08:37:02.310Z,4.20
2018-02-13T08:39:31.906Z,3.80
2018-02-13T08:42:00.920Z,4.07
2018-02-13T08:44:30.506Z,4.60
2018-02-13T08:47:00.138Z,4.47
2018-02-13T08:49:29.007Z,4.10
2018-02-13T08:51:58.686Z,4.60
2018-02-13T08:54:27.533Z,4.33
2018-02-13T08:56:56.362Z,3.80
2018-02-13T08:59:25.217Z,4.70
2018-02-13T09:01:54.059Z,4.30
2018-02-13T09:04:22.888Z,3.90
2018-02-13T09:06:51.704Z,3.93
2018-02-13T09:09:20.571Z,4.57
2018-02-13T09:11:49.382Z,4.30
2018-02-13T09:14:18.209Z,3.90
2018-02-13T09:16:48.353Z,5.27
2018-02-13T09:19:17.966Z,3.53
2018-02-13T09:21:47.566Z,4.57
2018-02-13T09:24:17.155Z,3.27
2018-02-13T09:26:46.760Z,4.20
2018-02-13T09:29:16.358Z,3.83
2018-02-13T09:31:46.179Z,4.20
2018-02-13T09:34:15.827Z,3.83
2018-02-13T09:36:44.598Z,4.13
2018-02-13T09:39:13.432Z,4.00
2018-02-13T09:41:42.256Z,4.23
2018-02-13T09:44:11.087Z,3.73
2018-02-13T09:46:39.947Z,4.80
2018-02-13T09:49:08.766Z,4.00
2018-02-13T09:51:37.636Z,4.63
2018-02-13T09:54:06.469Z,3.37
2018-02-13T09:56:35.338Z,3.50
2018-02-13T09:59:04.174Z,4.07
2018-02-13T10:01:33.029Z,4.40
2018-02-13T10:04:01.882Z,3.83
2018-02-13T10:06:31.490Z,3.83
2018-02-13T10:09:01.082Z,3.90
2018-02-13T10:11:30.708Z,3.33
2018-02-13T10:14:00.301Z,4.00
2018-02-13T10:16:29.909Z,4.03
2018-02-13T10:18:58.734Z,3.67
2018-02-13T10:21:27.584Z,4.03
2018-02-13T10:23:56.440Z,3.43
2018-02-13T10:26:25.343Z,3.90
2018-02-13T10:28:54.187Z,3.80
2018-02-13T10:31:23.799Z,3.30
2018-02-13T10:33:52.648Z,3.43
2018-02-13T10:36:21.473Z,3.33
2018-02-13T10:38:50.306Z,3.37
2018-02-13T10:41:20.713Z,3.70
2018-02-13T10:43:49.554Z,3.70
2018-02-13T10:46:18.598Z,3.60
2018-02-13T10:48:48.234Z,3.70
2018-02-13T10:51:17.092Z,3.30
2018-02-13T10:53:45.945Z,2.80
2018-02-13T10:56:14.766Z,2.60
2018-02-13T10:58:43.581Z,3.43
2018-02-13T11:01:19.001Z,3.37
2018-02-13T11:03:49.561Z,2.93
2018-02-13T11:06:19.169Z,2.60
2018-02-13T11:08:48.017Z,3.17
2018-02-13T11:11:16.855Z,2.73
2018-02-13T11:13:45.717Z,3.43
2018-02-13T11:16:15.322Z,3.37
2018-02-13T11:18:44.943Z,2.80
2018-02-13T11:21:14.560Z,3.47
2018-02-13T11:23:43.730Z,2.83
2018-02-13T11:26:13.408Z,4.13
2018-02-13T11:28:42.205Z,3.10
2018-02-13T11:31:11.098Z,2.70
2018-02-13T11:33:39.947Z,2.80
2018-02-13T11:36:08.774Z,2.60
2018-02-13T11:38:37.622Z,2.73
2018-02-13T11:41:06.481Z,3.40
2018-02-13T11:43:36.111Z,3.53
2018-02-13T11:46:04.963Z,3.00
2018-02-13T11:48:33.802Z,3.07
2018-02-13T11:51:03.413Z,2.87
2018-02-13T11:53:33.013Z,3.10
2018-02-13T11:56:02.625Z,2.87
2018-02-13T11:58:32.241Z,2.63
2018-02-13T12:01:01.846Z,2.80
2018-02-13T12:03:31.490Z,2.80
2018-02-13T12:06:00.322Z,3.30
2018-02-13T12:08:29.156Z,3.00
2018-02-13T12:10:58.051Z,2.93
2018-02-13T12:13:26.882Z,2.77
2018-02-13T12:15:55.728Z,2.67
2018-02-13T12:18:24.571Z,3.07
2018-02-13T12:20:53.458Z,2.70
2018-02-13T12:23:22.307Z,2.97
2018-02-13T12:25:51.178Z,2.50
2018-02-13T12:28:20.033Z,2.90
2018-02-13T12:30:48.885Z,2.67
2018-02-13T12:33:18.555Z,2.83
2018-02-13T12:35:48.177Z,2.70
2018-02-13T12:38:17.057Z,2.97
2018-02-13T12:40:46.693Z,2.87
2018-02-13T12:43:16.255Z,2.93
2018-02-13T12:45:48.773Z,2.83
2018-02-13T12:48:17.626Z,2.50
2018-02-13T12:50:47.385Z,2.90
2018-02-13T12:53:16.405Z,3.33
2018-02-13T12:55:46.230Z,2.87
2018-02-13T12:58:15.817Z,2.53
2018-02-13T13:00:45.421Z,2.60
2018-02-13T13:03:14.269Z,2.20
2018-02-13T13:05:43.100Z,2.63
2018-02-13T13:08:13.033Z,2.40
2018-02-13T13:10:42.649Z,2.97
2018-02-13T13:13:12.269Z,2.43
2018-02-13T13:15:41.108Z,2.30
2018-02-13T13:18:09.931Z,2.50
2018-02-13T13:20:39.601Z,2.50
2018-02-13T13:23:08.442Z,2.10
2018-02-13T13:25:37.282Z,2.30
2018-02-13T13:28:06.125Z,2.47
2018-02-13T13:30:34.966Z,2.33
2018-02-13T13:33:03.795Z,2.90
2018-02-13T13:35:33.393Z,1.97
2018-02-13T13:38:02.990Z,2.60
2018-02-13T13:40:32.595Z,2.70
2018-02-13T13:43:02.636Z,2.90
2018-02-13T13:45:31.700Z,3.07
2018-02-13T13:48:00.532Z,3.03
2018-02-13T13:50:30.122Z,3.50
2018-02-13T13:52:58.968Z,3.17
2018-02-13T13:55:27.798Z,3.33
2018-02-13T13:57:58.746Z,3.20
2018-02-13T14:00:28.351Z,3.10
2018-02-13T14:02:57.199Z,2.90
2018-02-13T14:05:26.034Z,2.70
2018-02-13T14:07:55.643Z,3.03
2018-02-13T14:10:25.249Z,2.70
2018-02-13T14:12:54.876Z,3.10
2018-02-13T14:15:24.863Z,2.63
2018-02-13T14:17:53.700Z,3.70
2018-02-13T14:20:22.526Z,3.23
2018-02-13T14:22:51.801Z,3.00
2018-02-13T14:25:20.618Z,3.03
2018-02-13T14:27:50.351Z,2.67
2018-02-13T14:30:19.230Z,3.60
2018-02-13T14:32:48.054Z,2.90
2018-02-13T14:35:16.917Z,3.77
2018-02-13T14:37:46.511Z,4.53
2018-02-13T14:40:15.364Z,3.10
2018-02-13T14:42:44.191Z,3.10
2018-02-13T14:45:13.010Z,3.10
2018-02-13T14:47:42.761Z,4.40
2018-02-13T14:50:11.614Z,3.73
2018-02-13T14:52:41.276Z,3.03
2018-02-13T14:55:10.125Z,3.57
2018-02-13T14:57:39.732Z,2.90
2018-02-13T15:00:10.060Z,3.83
2018-02-13T15:02:39.087Z,3.50
2018-02-13T15:05:07.902Z,4.13
2018-02-13T15:07:36.733Z,3.90
2018-02-13T15:10:06.340Z,3.30
2018-02-13T15:12:35.962Z,2.67
2018-02-13T15:15:08.287Z,3.40
2018-02-13T15:17:37.182Z,3.17
2018-02-13T15:20:06.024Z,3.93
2018-02-13T15:22:35.005Z,3.87
2018-02-13T15:25:03.854Z,7.17
2018-02-13T15:27:33.458Z,3.30
2018-02-13T15:30:02.294Z,3.53
2018-02-13T15:32:31.142Z,3.10
2018-02-13T15:34:59.979Z,3.93
2018-02-13T15:37:28.901Z,4.00
2018-02-13T15:39:57.759Z,3.53
2018-02-13T15:42:26.642Z,3.00
2018-02-13T15:44:55.574Z,3.87
2018-02-13T15:47:28.078Z,3.43
2018-02-13T15:49:56.918Z,3.20
2018-02-13T15:52:25.765Z,3.30
2018-02-13T15:54:54.593Z,3.30
2018-02-13T15:57:23.453Z,4.23
2018-02-13T15:59:52.272Z,3.87
2018-02-13T16:02:21.125Z,3.77
2018-02-13T16:04:49.975Z,3.30
2018-02-13T16:07:18.821Z,5.20
2018-02-13T16:09:48.417Z,3.90
2018-02-13T16:12:18.040Z,3.23
2018-02-13T16:14:46.896Z,3.93
2018-02-13T16:17:15.728Z,4.00
2018-02-13T16:19:44.569Z,3.70
2018-02-13T16:22:14.342Z,5.50
2018-02-13T16:24:43.188Z,3.57
2018-02-13T16:27:12.038Z,4.90
2018-02-13T16:29:40.872Z,4.90
2018-02-13T16:32:10.499Z,6.00
2018-02-13T16:34:39.318Z,7.70
2018-02-13T16:37:08.170Z,8.23
2018-02-13T16:39:37.049Z,5.40
2018-02-13T16:42:06.654Z,4.87
2018-02-13T16:44:35.578Z,5.10
2018-02-13T16:47:04.619Z,4.67
2018-02-13T16:49:33.502Z,5.47
2018-02-13T16:52:02.321Z,6.67
2018-02-13T16:54:31.200Z,4.70
2018-02-13T16:57:00.026Z,4.90
2018-02-13T16:59:29.629Z,5.03
2018-02-13T17:01:59.238Z,4.90
2018-02-13T17:04:28.863Z,5.10
2018-02-13T17:06:57.727Z,6.17
2018-02-13T17:09:27.364Z,7.70
2018-02-13T17:11:56.942Z,8.20
2018-02-13T17:14:26.577Z,16.97
2018-02-13T17:16:56.182Z,11.20
2018-02-13T17:19:25.043Z,10.03
2018-02-13T17:21:55.006Z,10.20
2018-02-13T17:24:24.145Z,10.17
2018-02-13T17:26:53.818Z,8.10
2018-02-13T17:29:22.665Z,8.30
2018-02-13T17:31:52.357Z,9.27
2018-02-13T17:34:21.178Z,7.60
2018-02-13T17:36:50.052Z,4.93
2018-02-13T17:39:19.643Z,5.70
2018-02-13T17:41:49.266Z,5.00
2018-02-13T17:44:18.862Z,5.10
2018-02-13T17:46:48.465Z,4.90
2018-02-13T17:49:18.064Z,5.23
2018-02-13T17:51:46.928Z,5.33
2018-02-13T17:54:15.750Z,4.40
2018-02-13T17:56:44.629Z,4.83
2018-02-13T17:59:13.443Z,5.03
2018-02-13T18:01:42.293Z,5.17
2018-02-13T18:04:11.175Z,5.73
2018-02-13T18:06:40.027Z,8.53
2018-02-13T18:09:09.650Z,5.47
2018-02-13T18:11:38.505Z,7.20
2018-02-13T18:14:07.342Z,6.10
2018-02-13T18:16:36.177Z,6.03
2018-02-13T18:19:05.846Z,5.30
2018-02-13T18:21:34.669Z,6.33
2018-02-13T18:24:03.548Z,6.03
2018-02-13T18:26:32.442Z,6.93
2018-02-13T18:29:01.294Z,5.90
2018-02-13T18:31:30.099Z,6.47
2018-02-13T18:33:58.931Z,6.20
2018-02-13T18:36:27.775Z,7.00
2018-02-13T18:38:56.665Z,6.50
2018-02-13T18:41:26.325Z,6.33
2018-02-13T18:43:55.942Z,6.13
2018-02-13T18:46:26.497Z,6.90
2018-02-13T18:48:55.383Z,7.20
2018-02-13T18:51:24.215Z,7.77
2018-02-13T18:53:53.623Z,8.10
2018-02-13T18:56:22.476Z,7.60
2018-02-13T18:58:52.096Z,8.40
2018-02-13T19:01:20.966Z,9.90
2018-02-13T19:03:50.561Z,8.30
2018-02-13T19:06:20.173Z,8.83
2018-02-13T19:08:49.794Z,8.73
2018-02-13T19:11:19.342Z,7.80
2018-02-13T19:13:48.170Z,8.67
2018-02-13T19:16:17.039Z,9.27
2018-02-13T19:18:45.863Z,8.90
2018-02-13T19:21:15.436Z,8.93
2018-02-13T19:23:44.454Z,8.40
2018-02-13T19:26:13.268Z,8.80
2018-02-13T19:28:42.120Z,8.07
2018-02-13T19:31:10.967Z,10.10
2018-02-13T19:33:39.843Z,9.40
2018-02-13T19:36:08.687Z,8.07
2018-02-13T19:38:37.520Z,9.10
2018-02-13T19:41:06.354Z,9.53
2018-02-13T19:43:35.260Z,9.60
2018-02-13T19:46:04.137Z,9.43
2018-02-13T19:48:33.032Z,9.83
2018-02-13T19:51:01.873Z,9.10
2018-02-13T19:53:31.245Z,9.90
2018-02-13T19:56:00.838Z,9.97
2018-02-13T19:58:29.766Z,9.40
2018-02-13T20:00:58.607Z,11.47
2018-02-13T20:03:28.264Z,9.33
2018-02-13T20:05:57.087Z,9.27
2018-02-13T20:08:25.949Z,10.50
2018-02-13T20:10:55.537Z,9.30
2018-02-13T20:13:24.380Z,9.27
2018-02-13T20:15:54.147Z,9.47
2018-02-13T20:18:23.025Z,11.53
2018-02-13T20:20:51.922Z,10.97
2018-02-13T20:23:20.762Z,10.90
2018-02-13T20:25:50.519Z,10.17
2018-02-13T20:28:19.408Z,10.10
2018-02-13T20:30:48.844Z,11.90
2018-02-13T20:33:17.688Z,11.20
2018-02-13T20:35:46.621Z,11.60
2018-02-13T20:38:15.472Z,11.10
2018-02-13T20:40:44.339Z,12.07
2018-02-13T20:43:13.278Z,12.73
2018-02-13T20:45:42.135Z,11.90
2018-02-13T20:48:10.989Z,17.60
2018-02-13T20:50:40.651Z,15.97
2018-02-13T20:53:09.530Z,12.83
2018-02-13T20:55:38.363Z,11.90
2018-02-13T20:58:07.227Z,13.63
2018-02-13T21:00:36.085Z,12.30
2018-02-13T21:03:04.980Z,11.77
2018-02-13T21:05:34.646Z,12.03
2018-02-13T21:08:03.563Z,12.33
2018-02-13T21:10:32.391Z,13.73
2018-02-13T21:13:01.995Z,12.23
2018-02-13T21:15:31.670Z,11.60
2018-02-13T21:18:00.521Z,11.53
2018-02-13T21:20:29.394Z,12.97
2018-02-13T21:22:59.019Z,13.47
2018-02-13T21:25:27.898Z,13.20
2018-02-13T21:27:56.759Z,13.20
2018-02-13T21:30:26.371Z,14.37
2018-02-13T21:32:55.994Z,12.17
2018-02-13T21:35:24.875Z,13.83
2018-02-13T21:37:54.474Z,13.77
2018-02-13T21:40:24.126Z,12.93
2018-02-13T21:42:52.961Z,13.17
2018-02-13T21:45:21.838Z,13.30
2018-02-13T21:47:51.094Z,12.73
2018-02-13T21:50:20.183Z,14.77
2018-02-13T21:52:49.034Z,18.07
2018-02-13T21:55:18.690Z,14.50
2018-02-13T21:57:47.556Z,14.33
2018-02-13T22:00:16.417Z,12.83
2018-02-13T22:02:45.260Z,14.60
2018-02-13T22:05:14.671Z,16.57
2018-02-13T22:07:43.518Z,17.03
2018-02-13T22:10:12.380Z,16.10
2018-02-13T22:12:41.243Z,17.43
2018-02-13T22:15:10.846Z,17.70
2018-02-13T22:17:40.504Z,18.80
2018-02-13T22:20:09.326Z,15.50
2018-02-13T22:22:38.766Z,16.80
2018-02-13T22:25:07.595Z,16.53
2018-02-13T22:27:37.082Z,16.20
2018-02-13T22:30:05.917Z,17.07
2018-02-13T22:32:35.771Z,14.73
2018-02-13T22:35:05.395Z,17.43
2018-02-13T22:37:34.266Z,15.27
2018-02-13T22:40:03.107Z,16.30
2018-02-13T22:42:31.957Z,16.07
2018-02-13T22:45:00.815Z,20.42
2018-02-13T22:47:30.770Z,17.67
2018-02-13T22:49:59.590Z,18.87
2018-02-13T22:52:29.982Z,14.87
2018-02-13T22:54:59.343Z,15.33
2018-02-13T22:57:28.970Z,15.50
2018-02-13T22:59:57.852Z,14.30
2018-02-13T23:02:27.440Z,13.60
2018-02-13T23:04:57.077Z,14.47
2018-02-13T23:07:25.919Z,15.27
2018-02-13T23:09:54.761Z,13.40
2018-02-13T23:12:24.915Z,12.50
2018-02-13T23:14:53.755Z,13.50
2018-02-13T23:17:23.374Z,14.10
2018-02-13T23:19:52.990Z,13.50
2018-02-13T23:22:22.595Z,9.87
2018-02-13T23:24:52.191Z,11.43
2018-02-13T23:27:21.887Z,10.97
2018-02-13T23:29:50.931Z,9.67
2018-02-13T23:32:19.776Z,10.93
2018-02-13T23:34:48.729Z,10.23
2018-02-13T23:37:17.604Z,9.73
2018-02-13T23:39:46.431Z,10.50
2018-02-13T23:42:15.283Z,10.93
2018-02-13T23:44:44.110Z,11.17
2018-02-13T23:47:13.013Z,10.40
2018-02-13T23:49:41.813Z,10.97
2018-02-13T23:52:11.431Z,11.47
2018-02-13T23:54:40.262Z,12.67
2018-02-13T23:57:09.123Z,12.33
2018-02-13T23:59:37.972Z,13.20
